createdAt,value
2022-09-28T00:00:40.694Z,998.76
2022-09-28T00:01:40.707Z,998.82
2022-09-28T00:02:40.751Z,998.82
2022-09-28T00:03:40.645Z,998.81
2022-09-28T00:04:40.589Z,998.79
2022-09-28T00:05:40.576Z,998.80
2022-09-28T00:06:40.602Z,998.79
2022-09-28T00:07:40.556Z,998.79
2022-09-28T00:08:40.541Z,998.75
2022-09-28T00:09:40.604Z,998.77
2022-09-28T00:10:40.608Z,998.79
2022-09-28T00:11:40.544Z,998.78
2022-09-28T00:12:40.502Z,998.78
2022-09-28T00:13:40.472Z,998.72
2022-09-28T00:14:40.545Z,998.74
2022-09-28T00:15:40.453Z,998.71
2022-09-28T00:16:40.492Z,998.66
2022-09-28T00:17:40.451Z,998.62
2022-09-28T00:18:40.497Z,998.70
2022-09-28T00:19:40.371Z,998.68
2022-09-28T00:20:40.389Z,998.66
2022-09-28T00:21:40.378Z,998.65
2022-09-28T00:22:40.352Z,998.66
2022-09-28T00:23:40.339Z,998.66
2022-09-28T00:24:40.356Z,998.69
2022-09-28T00:25:40.301Z,998.68
2022-09-28T00:26:40.322Z,998.69
2022-09-28T00:27:40.285Z,998.64
2022-09-28T00:28:40.305Z,998.66
2022-09-28T00:29:40.244Z,998.62
2022-09-28T00:30:40.341Z,998.63
2022-09-28T00:31:40.254Z,998.61
2022-09-28T00:32:40.239Z,998.59
2022-09-28T00:33:40.257Z,998.58
2022-09-28T00:34:40.221Z,998.54
2022-09-28T00:35:40.233Z,998.62
2022-09-28T00:36:40.174Z,998.55
2022-09-28T00:37:40.155Z,998.59
2022-09-28T00:38:40.181Z,998.54
2022-09-28T00:39:40.157Z,998.57
2022-09-28T00:40:40.182Z,998.62
2022-09-28T00:41:40.125Z,998.57
2022-09-28T00:42:40.158Z,998.51
2022-09-28T00:43:40.079Z,998.54
2022-09-28T00:44:40.154Z,998.49
2022-09-28T00:45:40.267Z,998.48
2022-09-28T00:46:40.032Z,998.46
2022-09-28T00:47:40.135Z,998.40
2022-09-28T00:48:40.009Z,998.44
2022-09-28T00:49:40.012Z,998.46
2022-09-28T00:50:39.987Z,998.38
2022-09-28T00:51:39.974Z,998.40
2022-09-28T00:52:39.996Z,998.35
2022-09-28T00:53:39.957Z,998.41
2022-09-28T00:54:39.937Z,998.44
2022-09-28T00:55:39.941Z,998.46
2022-09-28T00:56:39.909Z,998.48
2022-09-28T00:57:39.899Z,998.46
2022-09-28T00:58:39.954Z,998.46
2022-09-28T00:59:39.854Z,998.45
2022-09-28T01:00:39.937Z,998.43
2022-09-28T01:01:39.887Z,998.43
2022-09-28T01:02:39.840Z,998.43
2022-09-28T01:03:39.834Z,998.39
2022-09-28T01:04:39.820Z,998.44
2022-09-28T01:05:39.803Z,998.44
2022-09-28T01:06:39.808Z,998.38
2022-09-28T01:07:39.764Z,998.46
2022-09-28T01:08:39.756Z,998.39
2022-09-28T01:09:39.778Z,998.38
2022-09-28T01:10:39.737Z,998.40
2022-09-28T01:11:39.732Z,998.38
2022-09-28T01:12:39.804Z,998.36
2022-09-28T01:13:39.681Z,998.37
2022-09-28T01:14:39.666Z,998.29
2022-09-28T01:15:39.804Z,998.33
2022-09-28T01:16:39.699Z,998.28
2022-09-28T01:17:39.629Z,998.23
2022-09-28T01:18:39.610Z,998.25
2022-09-28T01:19:39.651Z,998.24
2022-09-28T01:20:39.593Z,998.21
2022-09-28T01:21:39.709Z,998.22
2022-09-28T01:22:39.565Z,998.24
2022-09-28T01:23:39.595Z,998.25
2022-09-28T01:24:39.549Z,998.25
2022-09-28T01:25:39.685Z,998.25
2022-09-28T01:26:39.521Z,998.23
2022-09-28T01:27:39.585Z,998.25
2022-09-28T01:28:39.501Z,998.30
2022-09-28T01:29:39.518Z,998.24
2022-09-28T01:30:39.479Z,998.26
2022-09-28T01:31:39.495Z,998.24
2022-09-28T01:32:39.468Z,998.28
2022-09-28T01:33:39.440Z,998.24
2022-09-28T01:34:39.404Z,998.30
2022-09-28T01:35:39.404Z,998.29
2022-09-28T01:36:39.400Z,998.32
2022-09-28T01:37:39.408Z,998.32
2022-09-28T01:38:39.375Z,998.30
2022-09-28T01:39:39.374Z,998.28
2022-09-28T01:40:39.466Z,998.25
2022-09-28T01:41:39.314Z,998.22
2022-09-28T01:42:39.308Z,998.25
2022-09-28T01:43:39.304Z,998.28
2022-09-28T01:44:39.284Z,998.25
2022-09-28T01:45:39.459Z,998.21
2022-09-28T01:46:39.312Z,998.18
2022-09-28T01:47:39.281Z,998.21
2022-09-28T01:48:39.274Z,998.20
2022-09-28T01:49:39.275Z,998.24
2022-09-28T01:50:39.209Z,998.24
2022-09-28T01:51:39.242Z,998.19
2022-09-28T01:52:39.184Z,998.20
2022-09-28T01:53:39.171Z,998.17
2022-09-28T01:54:39.198Z,998.18
2022-09-28T01:55:39.166Z,998.15
2022-09-28T01:56:39.139Z,998.15
2022-09-28T01:57:39.161Z,998.12
2022-09-28T01:58:39.106Z,998.10
2022-09-28T01:59:39.074Z,998.16
2022-09-28T02:00:39.296Z,998.11
2022-09-28T02:01:39.073Z,998.12
2022-09-28T02:02:39.077Z,998.08
2022-09-28T02:03:39.087Z,998.06
2022-09-28T02:04:39.055Z,998.12
2022-09-28T02:05:39.031Z,998.07
2022-09-28T02:06:39.001Z,998.06
2022-09-28T02:07:38.998Z,998.09
2022-09-28T02:08:39.002Z,998.08
2022-09-28T02:09:38.989Z,998.09
2022-09-28T02:10:39.025Z,998.06
2022-09-28T02:11:38.932Z,998.09
2022-09-28T02:12:38.912Z,998.06
2022-09-28T02:13:45.390Z,998.10
2022-09-28T02:14:38.893Z,998.09
2022-09-28T02:15:38.907Z,998.10
2022-09-28T02:16:38.939Z,998.04
2022-09-28T02:17:38.843Z,997.99
2022-09-28T02:18:38.892Z,998.02
2022-09-28T02:19:38.821Z,998.00
2022-09-28T02:20:38.841Z,998.01
2022-09-28T02:21:38.875Z,998.02
2022-09-28T02:22:38.809Z,998.05
2022-09-28T02:23:38.772Z,997.99
2022-09-28T02:24:38.772Z,997.99
2022-09-28T02:25:38.741Z,997.97
2022-09-28T02:26:38.748Z,997.95
2022-09-28T02:27:38.794Z,997.99
2022-09-28T02:28:38.768Z,998.00
2022-09-28T02:29:38.685Z,998.03
2022-09-28T02:30:38.737Z,998.01
2022-09-28T02:31:38.702Z,998.04
2022-09-28T02:32:38.665Z,998.02
2022-09-28T02:33:38.742Z,997.98
2022-09-28T02:34:38.708Z,998.00
2022-09-28T02:35:38.617Z,997.97
2022-09-28T02:36:38.632Z,997.92
2022-09-28T02:37:38.616Z,997.94
2022-09-28T02:38:38.606Z,997.87
2022-09-28T02:39:38.604Z,997.93
2022-09-28T02:40:38.584Z,997.93
2022-09-28T02:41:38.629Z,997.93
2022-09-28T02:42:38.538Z,997.94
2022-09-28T02:43:38.512Z,997.89
2022-09-28T02:44:38.549Z,997.88
2022-09-28T02:45:38.542Z,997.90
2022-09-28T02:46:38.483Z,997.84
2022-09-28T02:47:38.480Z,997.85
2022-09-28T02:48:43.931Z,997.84
2022-09-28T02:49:38.446Z,997.86
2022-09-28T02:50:38.435Z,997.89
2022-09-28T02:51:38.448Z,997.85
2022-09-28T02:52:38.439Z,997.81
2022-09-28T02:53:38.412Z,997.79
2022-09-28T02:54:38.376Z,997.79
2022-09-28T02:55:38.399Z,997.75
2022-09-28T02:56:38.356Z,997.83
2022-09-28T02:57:38.392Z,997.77
2022-09-28T02:58:38.352Z,997.82
2022-09-28T02:59:38.311Z,997.82
2022-09-28T03:00:38.374Z,997.80
2022-09-28T03:01:38.408Z,997.80
2022-09-28T03:02:38.276Z,997.82
2022-09-28T03:03:38.281Z,997.80
2022-09-28T03:04:38.341Z,997.85
2022-09-28T03:05:38.231Z,997.80
2022-09-28T03:06:38.217Z,997.85
2022-09-28T03:07:38.215Z,997.83
2022-09-28T03:08:38.202Z,997.85
2022-09-28T03:09:38.199Z,997.86
2022-09-28T03:10:38.214Z,997.84
2022-09-28T03:11:38.183Z,997.90
2022-09-28T03:12:38.139Z,997.82
2022-09-28T03:13:38.158Z,997.86
2022-09-28T03:14:38.129Z,997.89
2022-09-28T03:15:38.171Z,997.86
2022-09-28T03:16:38.170Z,997.88
2022-09-28T03:17:38.116Z,997.88
2022-09-28T03:18:38.120Z,997.93
2022-09-28T03:19:38.087Z,997.89
2022-09-28T03:20:38.021Z,997.89
2022-09-28T03:21:38.064Z,997.95
2022-09-28T03:22:38.064Z,997.94
2022-09-28T03:23:38.009Z,997.93
2022-09-28T03:24:37.985Z,997.94
2022-09-28T03:25:38.036Z,997.94
2022-09-28T03:26:37.986Z,997.94
2022-09-28T03:27:37.975Z,997.92
2022-09-28T03:28:37.957Z,997.94
2022-09-28T03:29:37.945Z,997.98
2022-09-28T03:30:37.906Z,997.98
2022-09-28T03:31:37.963Z,997.93
2022-09-28T03:32:37.931Z,997.98
2022-09-28T03:33:37.916Z,997.96
2022-09-28T03:34:37.857Z,997.99
2022-09-28T03:35:37.839Z,997.99
2022-09-28T03:36:37.813Z,997.97
2022-09-28T03:37:37.907Z,998.01
2022-09-28T03:38:37.799Z,997.96
2022-09-28T03:39:37.834Z,997.96
2022-09-28T03:40:37.809Z,997.95
2022-09-28T03:41:37.790Z,997.98
2022-09-28T03:42:37.783Z,998.00
2022-09-28T03:43:37.773Z,997.98
2022-09-28T03:44:37.755Z,997.96
2022-09-28T03:45:37.803Z,997.99
2022-09-28T03:46:37.695Z,997.97
2022-09-28T03:47:37.717Z,998.07
2022-09-28T03:48:37.668Z,997.98
2022-09-28T03:49:37.695Z,998.01
2022-09-28T03:50:37.696Z,998.00
2022-09-28T03:51:37.674Z,997.98
2022-09-28T03:52:37.619Z,998.02
2022-09-28T03:53:37.625Z,998.03
2022-09-28T03:54:37.670Z,998.04
2022-09-28T03:55:37.607Z,998.00
2022-09-28T03:56:37.565Z,998.00
2022-09-28T03:57:37.634Z,997.98
2022-09-28T03:58:37.549Z,997.97
2022-09-28T03:59:37.726Z,998.03
2022-09-28T04:00:37.591Z,998.04
2022-09-28T04:01:37.730Z,998.03
2022-09-28T04:02:37.550Z,998.00
2022-09-28T04:03:37.548Z,997.98
2022-09-28T04:04:37.487Z,997.98
2022-09-28T04:05:37.471Z,998.02
2022-09-28T04:06:37.432Z,998.02
2022-09-28T04:07:37.429Z,998.09
2022-09-28T04:08:37.427Z,998.09
2022-09-28T04:09:37.443Z,998.07
2022-09-28T04:10:37.431Z,998.14
2022-09-28T04:11:59.456Z,998.09
2022-09-28T04:12:37.404Z,998.10
2022-09-28T04:13:37.651Z,998.12
2022-09-28T04:14:37.330Z,998.09
2022-09-28T04:15:37.373Z,998.06
2022-09-28T04:16:37.386Z,998.04
2022-09-28T04:17:40.097Z,998.05
2022-09-28T04:18:37.274Z,998.07
2022-09-28T04:19:37.526Z,998.07
2022-09-28T04:20:37.301Z,998.03
2022-09-28T04:21:37.310Z,998.06
2022-09-28T04:22:37.231Z,998.02
2022-09-28T04:23:37.236Z,998.07
2022-09-28T04:24:38.144Z,998.05
2022-09-28T04:25:37.249Z,998.02
2022-09-28T04:26:37.175Z,998.06
2022-09-28T04:27:37.222Z,998.07
2022-09-28T04:28:37.195Z,998.10
2022-09-28T04:29:37.158Z,998.08
2022-09-28T04:30:37.123Z,998.07
2022-09-28T04:31:37.210Z,998.10
2022-09-28T04:32:37.084Z,998.10
2022-09-28T04:33:37.161Z,998.10
2022-09-28T04:34:39.668Z,998.10
2022-09-28T04:35:37.122Z,998.09
2022-09-28T04:36:37.039Z,998.10
2022-09-28T04:37:37.056Z,998.08
2022-09-28T04:38:52.321Z,998.08
2022-09-28T04:39:37.082Z,998.08
2022-09-28T04:40:37.094Z,998.13
2022-09-28T04:41:36.996Z,998.12
2022-09-28T04:42:36.987Z,998.14
2022-09-28T04:43:36.978Z,998.15
2022-09-28T04:44:36.955Z,998.15
2022-09-28T04:45:37.001Z,998.17
2022-09-28T04:46:36.941Z,998.18
2022-09-28T04:47:36.940Z,998.21
2022-09-28T04:48:36.906Z,998.18
2022-09-28T04:49:36.893Z,998.23
2022-09-28T04:50:36.936Z,998.20
2022-09-28T04:51:36.918Z,998.22
2022-09-28T04:52:36.875Z,998.24
2022-09-28T04:53:36.840Z,998.23
2022-09-28T04:54:36.805Z,998.27
2022-09-28T04:55:36.784Z,998.27
2022-09-28T04:56:36.742Z,998.20
2022-09-28T04:57:36.770Z,998.25
2022-09-28T04:58:36.704Z,998.28
2022-09-28T04:59:36.712Z,998.26
2022-09-28T05:00:36.697Z,998.33
2022-09-28T05:01:36.756Z,998.25
2022-09-28T05:02:36.712Z,998.29
2022-09-28T05:03:36.709Z,998.27
2022-09-28T05:04:36.664Z,998.29
2022-09-28T05:05:36.658Z,998.30
2022-09-28T05:06:36.607Z,998.30
2022-09-28T05:07:36.614Z,998.28
2022-09-28T05:08:36.599Z,998.27
2022-09-28T05:09:38.528Z,998.30
2022-09-28T05:10:36.539Z,998.33
2022-09-28T05:11:36.592Z,998.29
2022-09-28T05:12:36.515Z,998.26
2022-09-28T05:13:36.546Z,998.26
2022-09-28T05:14:36.499Z,998.24
2022-09-28T05:15:36.531Z,998.29
2022-09-28T05:16:36.503Z,998.26
2022-09-28T05:17:36.475Z,998.30
2022-09-28T05:18:36.471Z,998.28
2022-09-28T05:19:36.441Z,998.32
2022-09-28T05:20:36.422Z,998.35
2022-09-28T05:21:36.452Z,998.40
2022-09-28T05:22:36.421Z,998.37
2022-09-28T05:23:36.399Z,998.41
2022-09-28T05:24:36.366Z,998.37
2022-09-28T05:25:36.383Z,998.43
2022-09-28T05:26:36.338Z,998.40
2022-09-28T05:27:36.379Z,998.42
2022-09-28T05:28:36.321Z,998.42
2022-09-28T05:29:36.356Z,998.43
2022-09-28T05:30:36.484Z,998.40
2022-09-28T05:31:36.351Z,998.44
2022-09-28T05:32:36.259Z,998.42
2022-09-28T05:33:36.304Z,998.47
2022-09-28T05:34:36.234Z,998.47
2022-09-28T05:35:36.247Z,998.45
2022-09-28T05:36:36.219Z,998.50
2022-09-28T05:37:36.212Z,998.50
2022-09-28T05:38:36.190Z,998.47
2022-09-28T05:39:36.223Z,998.43
2022-09-28T05:40:36.203Z,998.47
2022-09-28T05:41:36.173Z,998.44
2022-09-28T05:42:36.132Z,998.46
2022-09-28T05:43:36.136Z,998.49
2022-09-28T05:44:36.108Z,998.49
2022-09-28T05:45:36.204Z,998.51
2022-09-28T05:46:36.084Z,998.54
2022-09-28T05:47:36.079Z,998.50
2022-09-28T05:48:36.084Z,998.49
2022-09-28T05:49:36.052Z,998.50
2022-09-28T05:50:36.033Z,998.49
2022-09-28T05:51:36.056Z,998.52
2022-09-28T05:52:36.000Z,998.51
2022-09-28T05:53:36.000Z,998.50
2022-09-28T05:54:35.966Z,998.50
2022-09-28T05:55:35.984Z,998.53
2022-09-28T05:56:35.971Z,998.50
2022-09-28T05:57:35.977Z,998.52
2022-09-28T05:58:35.925Z,998.50
2022-09-28T05:59:35.930Z,998.52
2022-09-28T06:00:35.893Z,998.51
2022-09-28T06:01:35.916Z,998.50
2022-09-28T06:02:35.927Z,998.52
2022-09-28T06:03:35.907Z,998.52
2022-09-28T06:04:35.845Z,998.52
2022-09-28T06:05:35.844Z,998.54
2022-09-28T06:06:35.821Z,998.55
2022-09-28T06:07:35.833Z,998.57
2022-09-28T06:08:35.812Z,998.57
2022-09-28T06:09:35.846Z,998.57
2022-09-28T06:10:35.802Z,998.57
2022-09-28T06:11:35.804Z,998.64
2022-09-28T06:12:35.751Z,998.58
2022-09-28T06:13:35.742Z,998.64
2022-09-28T06:14:35.743Z,998.64
2022-09-28T06:15:35.754Z,998.67
2022-09-28T06:16:38.283Z,998.62
2022-09-28T06:17:35.701Z,998.62
2022-09-28T06:18:35.669Z,998.64
2022-09-28T06:19:35.673Z,998.55
2022-09-28T06:20:35.643Z,998.58
2022-09-28T06:21:35.675Z,998.62
2022-09-28T06:22:35.648Z,998.64
2022-09-28T06:23:35.611Z,998.61
2022-09-28T06:24:35.591Z,998.63
2022-09-28T06:25:35.626Z,998.67
2022-09-28T06:26:35.577Z,998.65
2022-09-28T06:27:35.598Z,998.67
2022-09-28T06:28:35.530Z,998.61
2022-09-28T06:29:35.542Z,998.65
2022-09-28T06:30:35.529Z,998.68
2022-09-28T06:31:35.508Z,998.69
2022-09-28T06:32:35.486Z,998.72
2022-09-28T06:33:35.524Z,998.75
2022-09-28T06:34:35.454Z,998.79
2022-09-28T06:35:35.455Z,998.78
2022-09-28T06:36:35.433Z,998.82
2022-09-28T06:37:35.427Z,998.85
2022-09-28T06:38:35.418Z,998.80
2022-09-28T06:39:35.461Z,998.78
2022-09-28T06:40:35.439Z,998.81
2022-09-28T06:41:35.409Z,998.84
2022-09-28T06:42:35.346Z,998.86
2022-09-28T06:43:35.367Z,998.91
2022-09-28T06:44:35.370Z,998.88
2022-09-28T06:45:35.376Z,998.87
2022-09-28T06:46:35.340Z,998.84
2022-09-28T06:47:35.347Z,998.87
2022-09-28T06:48:35.279Z,998.84
2022-09-28T06:49:35.311Z,998.85
2022-09-28T06:50:35.268Z,998.88
2022-09-28T06:51:35.291Z,998.89
2022-09-28T06:52:35.263Z,998.98
2022-09-28T06:53:35.216Z,999.01
2022-09-28T06:54:35.215Z,999.04
2022-09-28T06:55:35.214Z,999.02
2022-09-28T06:56:35.187Z,999.01
2022-09-28T06:57:35.207Z,999.03
2022-09-28T06:58:35.151Z,999.01
2022-09-28T06:59:35.156Z,999.02
2022-09-28T07:00:35.123Z,999.08
2022-09-28T07:01:35.186Z,999.12
2022-09-28T07:02:35.167Z,999.14
2022-09-28T07:03:35.137Z,999.16
2022-09-28T07:04:35.096Z,999.21
2022-09-28T07:05:35.077Z,999.17
2022-09-28T07:06:35.058Z,999.17
2022-09-28T07:07:35.068Z,999.24
2022-09-28T07:08:35.025Z,999.21
2022-09-28T07:09:37.291Z,999.19
2022-09-28T07:10:34.995Z,999.25
2022-09-28T07:11:35.013Z,999.24
2022-09-28T07:12:34.972Z,999.23
2022-09-28T07:13:49.708Z,999.24
2022-09-28T07:14:47.369Z,999.30
2022-09-28T07:15:34.993Z,999.30
2022-09-28T07:17:00.318Z,999.29
2022-09-28T07:17:40.967Z,999.28
2022-09-28T07:18:34.891Z,999.30
2022-09-28T07:19:34.914Z,999.27
2022-09-28T07:20:44.919Z,999.29
2022-09-28T07:21:34.916Z,999.32
2022-09-28T07:22:42.954Z,999.30
2022-09-28T07:23:44.500Z,999.30
2022-09-28T07:24:34.807Z,999.36
2022-09-28T07:25:34.827Z,999.38
2022-09-28T07:26:34.816Z,999.38
2022-09-28T07:27:34.844Z,999.39
2022-09-28T07:28:34.769Z,999.40
2022-09-28T07:29:34.778Z,999.38
2022-09-28T07:30:34.782Z,999.40
2022-09-28T07:31:34.732Z,999.43
2022-09-28T07:32:34.821Z,999.39
2022-09-28T07:33:34.742Z,999.38
2022-09-28T07:34:34.742Z,999.44
2022-09-28T07:35:34.686Z,999.41
2022-09-28T07:36:34.679Z,999.44
2022-09-28T07:37:34.664Z,999.51
2022-09-28T07:38:34.637Z,999.51
2022-09-28T07:39:34.667Z,999.50
2022-09-28T07:40:34.681Z,999.54
2022-09-28T07:41:34.600Z,999.50
2022-09-28T07:42:34.619Z,999.52
2022-09-28T07:43:34.563Z,999.61
2022-09-28T07:44:34.557Z,999.58
2022-09-28T07:45:34.644Z,999.54
2022-09-28T07:46:34.545Z,999.62
2022-09-28T07:47:35.366Z,999.62
2022-09-28T07:48:34.512Z,999.67
2022-09-28T07:49:34.503Z,999.68
2022-09-28T07:50:34.497Z,999.73
2022-09-28T07:51:34.501Z,999.75
2022-09-28T07:52:34.468Z,999.83
2022-09-28T07:53:34.444Z,999.75
2022-09-28T07:54:34.438Z,999.77
2022-09-28T07:55:34.415Z,999.76
2022-09-28T07:56:34.420Z,999.81
2022-09-28T07:57:34.412Z,999.82
2022-09-28T07:58:34.400Z,999.86
2022-09-28T07:59:34.373Z,999.85
2022-09-28T08:00:34.515Z,999.87
2022-09-28T08:01:34.457Z,999.84
2022-09-28T08:02:34.435Z,999.91
2022-09-28T08:03:34.342Z,999.97
2022-09-28T08:04:34.313Z,999.90
2022-09-28T08:05:34.276Z,999.95
2022-09-28T08:06:34.282Z,999.94
2022-09-28T08:07:34.254Z,999.98
2022-09-28T08:08:34.281Z,999.95
2022-09-28T08:09:34.264Z,999.98
2022-09-28T08:10:34.282Z,999.97
2022-09-28T08:11:34.209Z,999.96
2022-09-28T08:12:34.221Z,1000.01
2022-09-28T08:13:34.200Z,999.93
2022-09-28T08:14:34.220Z,999.91
2022-09-28T08:15:34.177Z,999.96
2022-09-28T08:16:34.279Z,999.99
2022-09-28T08:17:34.124Z,999.95
2022-09-28T08:18:34.134Z,999.97
2022-09-28T08:19:34.085Z,999.98
2022-09-28T08:20:34.097Z,999.97
2022-09-28T08:21:34.137Z,999.99
2022-09-28T08:22:34.082Z,1000.03
2022-09-28T08:23:34.037Z,999.98
2022-09-28T08:24:34.071Z,1000.02
2022-09-28T08:25:34.015Z,1000.05
2022-09-28T08:26:34.016Z,1000.03
2022-09-28T08:27:34.031Z,1000.00
2022-09-28T08:28:33.998Z,1000.06
2022-09-28T08:29:33.978Z,1000.08
2022-09-28T08:30:34.028Z,1000.10
2022-09-28T08:31:33.931Z,1000.05
2022-09-28T08:32:33.949Z,1000.09
2022-09-28T08:33:33.958Z,1000.06
2022-09-28T08:34:33.907Z,1000.16
2022-09-28T08:35:33.900Z,1000.19
2022-09-28T08:36:33.894Z,1000.18
2022-09-28T08:37:33.855Z,1000.18
2022-09-28T08:38:33.861Z,1000.16
2022-09-28T08:39:33.873Z,1000.18
2022-09-28T08:40:33.873Z,1000.25
2022-09-28T08:41:33.812Z,1000.19
2022-09-28T08:42:33.807Z,1000.24
2022-09-28T08:43:33.785Z,1000.25
2022-09-28T08:44:33.868Z,1000.23
2022-09-28T08:45:33.792Z,1000.21
2022-09-28T08:46:33.811Z,1000.22
2022-09-28T08:47:33.733Z,1000.29
2022-09-28T08:48:33.742Z,1000.22
2022-09-28T08:49:33.950Z,1000.28
2022-09-28T08:50:33.698Z,1000.24
2022-09-28T08:51:33.709Z,1000.19
2022-09-28T08:52:33.689Z,1000.25
2022-09-28T08:53:33.687Z,1000.29
2022-09-28T08:54:33.700Z,1000.26
2022-09-28T08:55:33.624Z,1000.19
2022-09-28T08:56:33.629Z,1000.27
2022-09-28T08:57:33.645Z,1000.27
2022-09-28T08:58:33.589Z,1000.27
2022-09-28T08:59:33.580Z,1000.22
2022-09-28T09:00:33.595Z,1000.25
2022-09-28T09:01:33.658Z,1000.20
2022-09-28T09:02:33.849Z,1000.27
2022-09-28T09:03:33.555Z,1000.20
2022-09-28T09:04:33.531Z,1000.18
2022-09-28T09:05:33.513Z,1000.27
2022-09-28T09:06:33.497Z,1000.23
2022-09-28T09:07:33.477Z,1000.26
2022-09-28T09:08:33.467Z,1000.28
2022-09-28T09:09:33.473Z,1000.31
2022-09-28T09:10:33.435Z,1000.33
2022-09-28T09:11:33.410Z,1000.32
2022-09-28T09:12:33.440Z,1000.37
2022-09-28T09:13:33.422Z,1000.37
2022-09-28T09:14:33.389Z,1000.35
2022-09-28T09:15:33.442Z,1000.35
2022-09-28T09:16:33.412Z,1000.36
2022-09-28T09:17:33.399Z,1000.38
2022-09-28T09:18:33.342Z,1000.34
2022-09-28T09:19:33.306Z,1000.27
2022-09-28T09:20:33.316Z,1000.29
2022-09-28T09:21:33.317Z,1000.30
2022-09-28T09:22:33.313Z,1000.29
2022-09-28T09:23:33.286Z,1000.27
2022-09-28T09:24:33.257Z,1000.31
2022-09-28T09:25:37.757Z,1000.37
2022-09-28T09:26:33.321Z,1000.38
2022-09-28T09:27:33.258Z,1000.43
2022-09-28T09:28:33.220Z,1000.39
2022-09-28T09:29:33.170Z,1000.42
2022-09-28T09:30:33.249Z,1000.46
2022-09-28T09:31:33.202Z,1000.44
2022-09-28T09:32:33.154Z,1000.48
2022-09-28T09:33:33.156Z,1000.39
2022-09-28T09:34:33.144Z,1000.41
2022-09-28T09:35:33.120Z,1000.33
2022-09-28T09:36:33.112Z,1000.40
2022-09-28T09:37:33.156Z,1000.36
2022-09-28T09:38:33.106Z,1000.37
2022-09-28T09:39:33.132Z,1000.41
2022-09-28T09:40:33.074Z,1000.39
2022-09-28T09:41:33.058Z,1000.41
2022-09-28T09:42:33.035Z,1000.35
2022-09-28T09:43:32.997Z,1000.41
2022-09-28T09:44:33.012Z,1000.36
2022-09-28T09:45:33.008Z,1000.35
2022-09-28T09:46:32.975Z,1000.34
2022-09-28T09:47:32.957Z,1000.40
2022-09-28T09:48:32.952Z,1000.42
2022-09-28T09:49:32.907Z,1000.39
2022-09-28T09:50:32.919Z,1000.40
2022-09-28T09:51:32.931Z,1000.43
2022-09-28T09:53:37.585Z,1000.38
2022-09-28T09:54:32.876Z,1000.43
2022-09-28T09:55:32.866Z,1000.40
2022-09-28T09:56:32.880Z,1000.42
2022-09-28T09:57:32.856Z,1000.42
2022-09-28T09:58:32.808Z,1000.44
2022-09-28T09:59:32.821Z,1000.39
2022-09-28T10:00:32.780Z,1000.40
2022-09-28T10:01:32.838Z,1000.39
2022-09-28T10:02:32.822Z,1000.40
2022-09-28T10:03:32.767Z,1000.37
2022-09-28T10:04:32.730Z,1000.40
2022-09-28T10:05:32.735Z,1000.38
2022-09-28T10:06:32.713Z,1000.52
2022-09-28T10:07:32.768Z,1000.38
2022-09-28T10:08:32.722Z,1000.39
2022-09-28T10:09:32.695Z,1000.41
2022-09-28T10:10:32.690Z,1000.41
2022-09-28T10:11:32.638Z,1000.36
2022-09-28T10:12:32.631Z,1000.45
2022-09-28T10:13:32.662Z,1000.46
2022-09-28T10:14:32.603Z,1000.47
2022-09-28T10:15:32.636Z,1000.42
2022-09-28T10:16:32.619Z,1000.47
2022-09-28T10:17:32.554Z,1000.44
2022-09-28T10:18:32.551Z,1000.45
2022-09-28T10:19:32.682Z,1000.46
2022-09-28T10:20:32.542Z,1000.39
2022-09-28T10:21:32.560Z,1000.42
2022-09-28T10:22:32.512Z,1000.41
2022-09-28T10:23:32.473Z,1000.45
2022-09-28T10:24:32.527Z,1000.48
2022-09-28T10:25:32.471Z,1000.46
2022-09-28T10:26:32.460Z,1000.42
2022-09-28T10:27:32.472Z,1000.46
2022-09-28T10:28:32.437Z,1000.45
2022-09-28T10:29:32.394Z,1000.47
2022-09-28T10:30:32.506Z,1000.44
2022-09-28T10:31:32.420Z,1000.47
2022-09-28T10:32:32.371Z,1000.49
2022-09-28T10:33:32.371Z,1000.43
2022-09-28T10:34:32.408Z,1000.44
2022-09-28T10:35:32.315Z,1000.43
2022-09-28T10:36:32.317Z,1000.43
2022-09-28T10:37:32.321Z,1000.49
2022-09-28T10:38:32.290Z,1000.48
2022-09-28T10:39:32.378Z,1000.51
2022-09-28T10:40:32.420Z,1000.51
2022-09-28T10:41:32.239Z,1000.48
2022-09-28T10:42:32.270Z,1000.45
2022-09-28T10:43:32.238Z,1000.46
2022-09-28T10:44:32.212Z,1000.46
2022-09-28T10:45:32.219Z,1000.49
2022-09-28T10:46:32.247Z,1000.45
2022-09-28T10:47:32.197Z,1000.47
2022-09-28T10:48:32.148Z,1000.46
2022-09-28T10:49:32.168Z,1000.46
2022-09-28T10:50:32.140Z,1000.48
2022-09-28T10:51:32.146Z,1000.47
2022-09-28T10:52:32.130Z,1000.55
2022-09-28T10:53:32.091Z,1000.53
2022-09-28T10:54:32.096Z,1000.46
2022-09-28T10:55:32.060Z,1000.51
2022-09-28T10:56:32.048Z,1000.52
2022-09-28T10:57:32.068Z,1000.53
2022-09-28T10:58:32.030Z,1000.55
2022-09-28T10:59:31.999Z,1000.54
2022-09-28T11:00:32.003Z,1000.54
2022-09-28T11:01:31.986Z,1000.57
2022-09-28T11:02:35.683Z,1000.54
2022-09-28T11:03:31.991Z,1000.55
2022-09-28T11:04:31.972Z,1000.58
2022-09-28T11:05:31.925Z,1000.59
2022-09-28T11:06:31.918Z,1000.56
2022-09-28T11:07:31.963Z,1000.45
2022-09-28T11:08:31.922Z,1000.47
2022-09-28T11:09:31.909Z,1000.48
2022-09-28T11:10:31.926Z,1000.47
2022-09-28T11:11:31.846Z,1000.48
2022-09-28T11:12:31.919Z,1000.47
2022-09-28T11:13:32.271Z,1000.49
2022-09-28T11:14:31.858Z,1000.47
2022-09-28T11:15:31.829Z,1000.38
2022-09-28T11:16:31.845Z,1000.37
2022-09-28T11:17:31.798Z,1000.34
2022-09-28T11:18:31.781Z,1000.41
2022-09-28T11:19:31.732Z,1000.31
2022-09-28T11:20:31.737Z,1000.35
2022-09-28T11:21:31.753Z,1000.33
2022-09-28T11:22:31.825Z,1000.31
2022-09-28T11:23:31.765Z,1000.35
2022-09-28T11:24:31.689Z,1000.37
2022-09-28T11:25:31.804Z,1000.34
2022-09-28T11:26:31.709Z,1000.30
2022-09-28T11:27:31.678Z,1000.29
2022-09-28T11:28:31.673Z,1000.31
2022-09-28T11:29:31.632Z,1000.29
2022-09-28T11:30:31.742Z,1000.34
2022-09-28T11:31:31.603Z,1000.27
2022-09-28T11:32:31.612Z,1000.29
2022-09-28T11:33:31.600Z,1000.32
2022-09-28T11:34:57.628Z,1000.28
2022-09-28T11:35:31.527Z,1000.33
2022-09-28T11:36:31.596Z,1000.29
2022-09-28T11:37:31.517Z,1000.29
2022-09-28T11:38:31.518Z,1000.28
2022-09-28T11:39:31.543Z,1000.35
2022-09-28T11:40:31.528Z,1000.33
2022-09-28T11:41:31.441Z,1000.31
2022-09-28T11:42:31.453Z,1000.27
2022-09-28T11:43:31.418Z,1000.30
2022-09-28T11:44:33.324Z,1000.34
2022-09-28T11:45:31.469Z,1000.28
2022-09-28T11:46:31.442Z,1000.26
2022-09-28T11:47:31.390Z,1000.31
2022-09-28T11:48:31.386Z,1000.32
2022-09-28T11:49:31.382Z,1000.30
2022-09-28T11:50:31.337Z,1000.28
2022-09-28T11:51:31.377Z,1000.28
2022-09-28T11:52:31.302Z,1000.24
2022-09-28T11:53:31.299Z,1000.25
2022-09-28T11:54:31.322Z,1000.24
2022-09-28T11:55:31.275Z,1000.27
2022-09-28T11:56:31.300Z,1000.26
2022-09-28T11:57:31.291Z,1000.27
2022-09-28T11:58:31.248Z,1000.28
2022-09-28T11:59:31.235Z,1000.32
2022-09-28T12:00:31.241Z,1000.32
2022-09-28T12:01:31.203Z,1000.32
2022-09-28T12:02:31.304Z,1000.34
2022-09-28T12:03:31.415Z,1000.33
2022-09-28T12:04:31.159Z,1000.28
2022-09-28T12:05:31.182Z,1000.31
2022-09-28T12:06:31.164Z,1000.33
2022-09-28T12:07:31.116Z,1000.31
2022-09-28T12:08:31.107Z,1000.31
2022-09-28T12:09:31.135Z,1000.29
2022-09-28T12:10:31.085Z,1000.35
2022-09-28T12:11:31.083Z,1000.36
2022-09-28T12:12:31.081Z,1000.34
2022-09-28T12:13:31.047Z,1000.35
2022-09-28T12:14:31.040Z,1000.37
2022-09-28T12:15:38.319Z,1000.39
2022-09-28T12:17:04.854Z,1000.33
2022-09-28T12:17:31.017Z,1000.41
2022-09-28T12:18:30.959Z,1000.39
2022-09-28T12:19:30.986Z,1000.41
2022-09-28T12:20:30.963Z,1000.36
2022-09-28T12:21:30.983Z,1000.34
2022-09-28T12:22:30.915Z,1000.39